sensor_id;sensor_type;location;lat;lon;timestamp;temperature;humidity
20483;DHT22;10400;53.198;6.592;2023-05-10T00:01:38;14.10;99.90
20483;DHT22;10400;53.198;6.592;2023-05-10T00:04:03;14.00;99.90
20483;DHT22;10400;53.198;6.592;2023-05-10T00:06:29;14.10;99.90
20483;DHT22;10400;53.198;6.592;2023-05-10T00:08:55;14.00;99.90
20483;DHT22;10400;53.198;6.592;2023-05-10T00:11:21;14.10;99.90
20483;DHT22;10400;53.198;6.592;2023-05-10T00:13:47;14.00;99.90
20483;DHT22;10400;53.198;6.592;2023-05-10T00:16:12;14.00;99.90
20483;DHT22;10400;53.198;6.592;2023-05-10T00:18:39;14.00;99.90
20483;DHT22;10400;53.198;6.592;2023-05-10T00:21:05;14.00;99.90
20483;DHT22;10400;53.198;6.592;2023-05-10T00:23:31;14.00;99.90
20483;DHT22;10400;53.198;6.592;2023-05-10T00:25:57;14.00;99.90
20483;DHT22;10400;53.198;6.592;2023-05-10T00:28:23;13.90;99.90
20483;DHT22;10400;53.198;6.592;2023-05-10T00:30:48;13.90;99.90
20483;DHT22;10400;53.198;6.592;2023-05-10T00:33:14;13.90;99.90
20483;DHT22;10400;53.198;6.592;2023-05-10T00:35:39;13.90;99.90
20483;DHT22;10400;53.198;6.592;2023-05-10T00:38:05;13.90;99.90
20483;DHT22;10400;53.198;6.592;2023-05-10T00:40:31;13.80;99.90
20483;DHT22;10400;53.198;6.592;2023-05-10T00:42:57;13.90;99.90
20483;DHT22;10400;53.198;6.592;2023-05-10T00:45:23;13.90;99.90
20483;DHT22;10400;53.198;6.592;2023-05-10T00:47:49;13.80;99.90
20483;DHT22;10400;53.198;6.592;2023-05-10T00:50:17;13.90;99.90
20483;DHT22;10400;53.198;6.592;2023-05-10T00:52:43;13.90;99.90
20483;DHT22;10400;53.198;6.592;2023-05-10T00:55:10;13.90;99.90
20483;DHT22;10400;53.198;6.592;2023-05-10T00:57:37;13.70;99.90
20483;DHT22;10400;53.198;6.592;2023-05-10T01:00:03;13.70;99.90
20483;DHT22;10400;53.198;6.592;2023-05-10T01:02:29;13.70;99.90
20483;DHT22;10400;53.198;6.592;2023-05-10T01:04:55;13.70;99.90
20483;DHT22;10400;53.198;6.592;2023-05-10T01:07:20;13.60;99.90
20483;DHT22;10400;53.198;6.592;2023-05-10T01:09:46;13.60;99.90
20483;DHT22;10400;53.198;6.592;2023-05-10T01:15:34;13.60;99.90
20483;DHT22;10400;53.198;6.592;2023-05-10T01:18:01;13.60;99.90
20483;DHT22;10400;53.198;6.592;2023-05-10T01:20:32;13.50;99.90
20483;DHT22;10400;53.198;6.592;2023-05-10T01:23:35;13.60;99.90
20483;DHT22;10400;53.198;6.592;2023-05-10T01:26:16;13.50;99.90
20483;DHT22;10400;53.198;6.592;2023-05-10T01:34:43;13.50;99.90
20483;DHT22;10400;53.198;6.592;2023-05-10T01:37:15;13.40;99.90
20483;DHT22;10400;53.198;6.592;2023-05-10T01:40:00;13.40;99.90
20483;DHT22;10400;53.198;6.592;2023-05-10T01:42:29;13.50;99.90
20483;DHT22;10400;53.198;6.592;2023-05-10T01:45:12;13.40;99.90
20483;DHT22;10400;53.198;6.592;2023-05-10T01:47:46;13.40;99.90
20483;DHT22;10400;53.198;6.592;2023-05-10T01:50:19;13.40;99.90
20483;DHT22;10400;53.198;6.592;2023-05-10T01:52:51;13.30;99.90
20483;DHT22;10400;53.198;6.592;2023-05-10T01:55:20;13.30;99.90
20483;DHT22;10400;53.198;6.592;2023-05-10T01:57:46;13.40;99.90
20483;DHT22;10400;53.198;6.592;2023-05-10T02:00:14;13.40;99.90
20483;DHT22;10400;53.198;6.592;2023-05-10T02:02:45;13.30;99.90
20483;DHT22;10400;53.198;6.592;2023-05-10T02:05:13;13.30;99.90
20483;DHT22;10400;53.198;6.592;2023-05-10T02:07:40;13.30;99.90
20483;DHT22;10400;53.198;6.592;2023-05-10T02:10:07;13.30;99.90
20483;DHT22;10400;53.198;6.592;2023-05-10T02:12:39;13.30;99.90
20483;DHT22;10400;53.198;6.592;2023-05-10T02:15:07;13.30;99.90
20483;DHT22;10400;53.198;6.592;2023-05-10T02:17:37;13.30;99.90
20483;DHT22;10400;53.198;6.592;2023-05-10T02:20:06;13.30;99.90
20483;DHT22;10400;53.198;6.592;2023-05-10T02:22:32;13.30;99.90
20483;DHT22;10400;53.198;6.592;2023-05-10T02:24:59;13.20;99.90
20483;DHT22;10400;53.198;6.592;2023-05-10T02:27:27;13.30;99.90
20483;DHT22;10400;53.198;6.592;2023-05-10T02:29:53;13.30;99.90
20483;DHT22;10400;53.198;6.592;2023-05-10T02:32:21;13.20;99.90
20483;DHT22;10400;53.198;6.592;2023-05-10T02:34:47;13.30;99.90
20483;DHT22;10400;53.198;6.592;2023-05-10T02:37:19;13.30;99.90
20483;DHT22;10400;53.198;6.592;2023-05-10T02:39:47;13.20;99.90
20483;DHT22;10400;53.198;6.592;2023-05-10T02:42:16;13.20;99.90
20483;DHT22;10400;53.198;6.592;2023-05-10T02:44:43;13.20;99.90
20483;DHT22;10400;53.198;6.592;2023-05-10T02:47:10;13.30;99.90
20483;DHT22;10400;53.198;6.592;2023-05-10T02:49:36;13.30;99.90
20483;DHT22;10400;53.198;6.592;2023-05-10T02:52:05;13.20;99.90
20483;DHT22;10400;53.198;6.592;2023-05-10T02:54:39;13.30;99.90
20483;DHT22;10400;53.198;6.592;2023-05-10T02:57:07;13.20;99.90
20483;DHT22;10400;53.198;6.592;2023-05-10T02:59:35;13.20;99.90
20483;DHT22;10400;53.198;6.592;2023-05-10T03:02:01;13.20;99.90
20483;DHT22;10400;53.198;6.592;2023-05-10T03:04:27;13.20;99.90
20483;DHT22;10400;53.198;6.592;2023-05-10T03:06:53;13.20;99.90
20483;DHT22;10400;53.198;6.592;2023-05-10T03:09:19;13.20;99.90
20483;DHT22;10400;53.198;6.592;2023-05-10T03:15:25;13.30;99.90
20483;DHT22;10400;53.198;6.592;2023-05-10T03:18:31;13.30;99.90
20483;DHT22;10400;53.198;6.592;2023-05-10T03:21:02;13.30;99.90
20483;DHT22;10400;53.198;6.592;2023-05-10T03:26:06;13.30;99.90
20483;DHT22;10400;53.198;6.592;2023-05-10T03:28:34;13.30;99.90
20483;DHT22;10400;53.198;6.592;2023-05-10T03:31:00;13.30;99.90
20483;DHT22;10400;53.198;6.592;2023-05-10T03:33:25;13.30;99.90
20483;DHT22;10400;53.198;6.592;2023-05-10T03:35:51;13.30;99.90
20483;DHT22;10400;53.198;6.592;2023-05-10T03:38:16;13.30;99.90
20483;DHT22;10400;53.198;6.592;2023-05-10T03:40:42;13.30;99.90
20483;DHT22;10400;53.198;6.592;2023-05-10T03:43:08;13.30;99.90
20483;DHT22;10400;53.198;6.592;2023-05-10T03:45:33;13.30;99.90
20483;DHT22;10400;53.198;6.592;2023-05-10T03:47:59;13.30;99.90
20483;DHT22;10400;53.198;6.592;2023-05-10T03:50:25;13.30;99.90
20483;DHT22;10400;53.198;6.592;2023-05-10T03:52:51;13.30;99.90
20483;DHT22;10400;53.198;6.592;2023-05-10T03:55:17;13.30;99.90
20483;DHT22;10400;53.198;6.592;2023-05-10T03:57:42;13.30;99.90
20483;DHT22;10400;53.198;6.592;2023-05-10T04:00:09;13.30;99.90
20483;DHT22;10400;53.198;6.592;2023-05-10T04:02:35;13.30;99.90
20483;DHT22;10400;53.198;6.592;2023-05-10T04:05:01;13.30;99.90
20483;DHT22;10400;53.198;6.592;2023-05-10T04:07:26;13.30;99.90
20483;DHT22;10400;53.198;6.592;2023-05-10T04:09:52;13.30;99.90
20483;DHT22;10400;53.198;6.592;2023-05-10T04:12:18;13.30;99.90
20483;DHT22;10400;53.198;6.592;2023-05-10T04:14:43;13.30;99.90
20483;DHT22;10400;53.198;6.592;2023-05-10T04:17:09;13.30;99.90
20483;DHT22;10400;53.198;6.592;2023-05-10T04:19:35;13.20;99.90
20483;DHT22;10400;53.198;6.592;2023-05-10T04:22:02;13.20;99.90
20483;DHT22;10400;53.198;6.592;2023-05-10T04:24:28;13.20;99.90
20483;DHT22;10400;53.198;6.592;2023-05-10T04:26:57;13.30;99.90
20483;DHT22;10400;53.198;6.592;2023-05-10T04:29:22;13.20;99.90
20483;DHT22;10400;53.198;6.592;2023-05-10T04:31:48;13.20;99.90
20483;DHT22;10400;53.198;6.592;2023-05-10T04:34:14;13.20;99.90
20483;DHT22;10400;53.198;6.592;2023-05-10T04:36:39;13.10;99.90
20483;DHT22;10400;53.198;6.592;2023-05-10T04:39:05;13.10;99.90
20483;DHT22;10400;53.198;6.592;2023-05-10T04:41:31;13.00;99.90
20483;DHT22;10400;53.198;6.592;2023-05-10T04:43:57;13.00;99.90
20483;DHT22;10400;53.198;6.592;2023-05-10T04:46:22;12.90;99.90
20483;DHT22;10400;53.198;6.592;2023-05-10T04:48:48;13.00;99.90
20483;DHT22;10400;53.198;6.592;2023-05-10T04:51:14;13.00;99.90
20483;DHT22;10400;53.198;6.592;2023-05-10T04:53:40;13.00;99.90
20483;DHT22;10400;53.198;6.592;2023-05-10T04:56:05;13.00;99.90
20483;DHT22;10400;53.198;6.592;2023-05-10T04:58:32;13.00;99.90
20483;DHT22;10400;53.198;6.592;2023-05-10T05:01:05;12.90;99.90
20483;DHT22;10400;53.198;6.592;2023-05-10T05:03:31;13.00;99.90
20483;DHT22;10400;53.198;6.592;2023-05-10T05:05:58;13.00;99.90
20483;DHT22;10400;53.198;6.592;2023-05-10T05:08:23;13.00;99.90
20483;DHT22;10400;53.198;6.592;2023-05-10T05:10:49;13.00;99.90
20483;DHT22;10400;53.198;6.592;2023-05-10T05:13:15;13.00;99.90
20483;DHT22;10400;53.198;6.592;2023-05-10T05:15:41;12.90;99.90
20483;DHT22;10400;53.198;6.592;2023-05-10T05:18:06;12.80;99.90
20483;DHT22;10400;53.198;6.592;2023-05-10T05:20:35;12.90;99.90
20483;DHT22;10400;53.198;6.592;2023-05-10T05:23:01;12.90;99.90
20483;DHT22;10400;53.198;6.592;2023-05-10T05:25:27;12.90;99.90
20483;DHT22;10400;53.198;6.592;2023-05-10T05:27:53;12.80;99.90
20483;DHT22;10400;53.198;6.592;2023-05-10T05:30:18;12.80;99.90
20483;DHT22;10400;53.198;6.592;2023-05-10T05:32:44;12.90;99.90
20483;DHT22;10400;53.198;6.592;2023-05-10T05:35:10;12.90;99.90
20483;DHT22;10400;53.198;6.592;2023-05-10T05:37:36;12.90;99.90
20483;DHT22;10400;53.198;6.592;2023-05-10T05:40:02;12.90;99.90
20483;DHT22;10400;53.198;6.592;2023-05-10T05:42:28;12.90;99.90
20483;DHT22;10400;53.198;6.592;2023-05-10T05:44:54;12.90;99.90
20483;DHT22;10400;53.198;6.592;2023-05-10T05:47:20;12.90;99.90
20483;DHT22;10400;53.198;6.592;2023-05-10T05:49:45;12.90;99.90
20483;DHT22;10400;53.198;6.592;2023-05-10T05:52:11;12.90;99.90
20483;DHT22;10400;53.198;6.592;2023-05-10T05:54:36;12.90;99.90
20483;DHT22;10400;53.198;6.592;2023-05-10T05:57:02;12.90;99.90
20483;DHT22;10400;53.198;6.592;2023-05-10T05:59:28;12.90;99.90
20483;DHT22;10400;53.198;6.592;2023-05-10T06:01:54;12.90;99.90
20483;DHT22;10400;53.198;6.592;2023-05-10T06:04:19;13.00;99.90
20483;DHT22;10400;53.198;6.592;2023-05-10T06:06:45;13.00;99.90
20483;DHT22;10400;53.198;6.592;2023-05-10T06:09:11;13.00;99.90
20483;DHT22;10400;53.198;6.592;2023-05-10T06:11:37;13.10;99.90
20483;DHT22;10400;53.198;6.592;2023-05-10T06:14:04;13.10;99.90
20483;DHT22;10400;53.198;6.592;2023-05-10T06:16:30;13.10;99.90
20483;DHT22;10400;53.198;6.592;2023-05-10T06:18:56;13.00;99.90
20483;DHT22;10400;53.198;6.592;2023-05-10T06:21:22;13.00;99.90
20483;DHT22;10400;53.198;6.592;2023-05-10T06:23:47;13.00;99.90
20483;DHT22;10400;53.198;6.592;2023-05-10T06:26:13;13.00;99.90
20483;DHT22;10400;53.198;6.592;2023-05-10T06:28:39;13.00;99.90
20483;DHT22;10400;53.198;6.592;2023-05-10T06:31:06;13.00;99.90
20483;DHT22;10400;53.198;6.592;2023-05-10T06:33:32;13.00;99.90
20483;DHT22;10400;53.198;6.592;2023-05-10T06:35:58;13.00;99.90
20483;DHT22;10400;53.198;6.592;2023-05-10T06:38:23;12.90;99.90
20483;DHT22;10400;53.198;6.592;2023-05-10T06:40:49;12.90;99.90
20483;DHT22;10400;53.198;6.592;2023-05-10T06:43:15;12.80;99.90
20483;DHT22;10400;53.198;6.592;2023-05-10T06:45:41;12.90;99.90
20483;DHT22;10400;53.198;6.592;2023-05-10T06:48:07;12.80;99.90
20483;DHT22;10400;53.198;6.592;2023-05-10T06:50:33;12.80;99.90
20483;DHT22;10400;53.198;6.592;2023-05-10T06:52:59;12.70;99.90
20483;DHT22;10400;53.198;6.592;2023-05-10T06:55:25;12.70;99.90
20483;DHT22;10400;53.198;6.592;2023-05-10T06:57:50;12.80;99.90
20483;DHT22;10400;53.198;6.592;2023-05-10T07:00:20;12.80;99.90
20483;DHT22;10400;53.198;6.592;2023-05-10T07:02:46;12.80;99.90
20483;DHT22;10400;53.198;6.592;2023-05-10T07:05:12;12.80;99.90
20483;DHT22;10400;53.198;6.592;2023-05-10T07:07:40;12.80;99.90
20483;DHT22;10400;53.198;6.592;2023-05-10T07:10:06;12.80;99.90
20483;DHT22;10400;53.198;6.592;2023-05-10T07:12:32;12.80;99.90
20483;DHT22;10400;53.198;6.592;2023-05-10T07:14:58;12.70;99.90
20483;DHT22;10400;53.198;6.592;2023-05-10T07:17:24;12.70;99.90
20483;DHT22;10400;53.198;6.592;2023-05-10T07:19:50;12.80;99.90
20483;DHT22;10400;53.198;6.592;2023-05-10T07:22:16;12.80;99.90
20483;DHT22;10400;53.198;6.592;2023-05-10T07:24:42;12.80;99.90
20483;DHT22;10400;53.198;6.592;2023-05-10T07:27:08;12.80;99.90
20483;DHT22;10400;53.198;6.592;2023-05-10T07:29:34;12.80;99.90
20483;DHT22;10400;53.198;6.592;2023-05-10T07:32:00;12.80;99.90
20483;DHT22;10400;53.198;6.592;2023-05-10T07:34:26;12.90;99.90
20483;DHT22;10400;53.198;6.592;2023-05-10T07:36:52;13.00;99.90
20483;DHT22;10400;53.198;6.592;2023-05-10T07:39:18;13.00;99.90
20483;DHT22;10400;53.198;6.592;2023-05-10T07:41:45;13.00;99.90
20483;DHT22;10400;53.198;6.592;2023-05-10T07:44:11;13.00;99.90
20483;DHT22;10400;53.198;6.592;2023-05-10T07:46:37;13.20;99.90
20483;DHT22;10400;53.198;6.592;2023-05-10T07:49:02;13.20;99.90
20483;DHT22;10400;53.198;6.592;2023-05-10T07:51:28;13.20;99.90
20483;DHT22;10400;53.198;6.592;2023-05-10T07:53:54;13.20;99.90
20483;DHT22;10400;53.198;6.592;2023-05-10T07:58:51;13.20;99.90
20483;DHT22;10400;53.198;6.592;2023-05-10T08:01:17;13.30;99.90
20483;DHT22;10400;53.198;6.592;2023-05-10T08:03:43;13.20;99.90
20483;DHT22;10400;53.198;6.592;2023-05-10T08:06:08;13.20;99.90
20483;DHT22;10400;53.198;6.592;2023-05-10T08:08:34;13.20;99.90
20483;DHT22;10400;53.198;6.592;2023-05-10T08:10:59;13.10;99.90
20483;DHT22;10400;53.198;6.592;2023-05-10T08:13:25;13.10;99.90
20483;DHT22;10400;53.198;6.592;2023-05-10T08:15:51;13.00;99.90
20483;DHT22;10400;53.198;6.592;2023-05-10T08:18:18;13.00;99.90
20483;DHT22;10400;53.198;6.592;2023-05-10T08:20:47;13.00;99.90
20483;DHT22;10400;53.198;6.592;2023-05-10T08:23:13;13.00;99.90
20483;DHT22;10400;53.198;6.592;2023-05-10T08:25:39;13.00;99.90
20483;DHT22;10400;53.198;6.592;2023-05-10T08:28:05;13.10;99.90
20483;DHT22;10400;53.198;6.592;2023-05-10T08:30:31;13.10;99.90
20483;DHT22;10400;53.198;6.592;2023-05-10T08:32:56;13.10;99.90
20483;DHT22;10400;53.198;6.592;2023-05-10T08:35:22;13.00;99.90
20483;DHT22;10400;53.198;6.592;2023-05-10T08:37:47;13.00;99.90
20483;DHT22;10400;53.198;6.592;2023-05-10T08:40:14;13.00;99.90
20483;DHT22;10400;53.198;6.592;2023-05-10T08:42:48;13.10;99.90
20483;DHT22;10400;53.198;6.592;2023-05-10T08:45:17;13.10;99.90
20483;DHT22;10400;53.198;6.592;2023-05-10T08:47:44;13.20;99.90
20483;DHT22;10400;53.198;6.592;2023-05-10T08:50:11;13.30;99.90
20483;DHT22;10400;53.198;6.592;2023-05-10T08:52:38;13.30;99.90
20483;DHT22;10400;53.198;6.592;2023-05-10T08:55:05;13.10;99.90
20483;DHT22;10400;53.198;6.592;2023-05-10T08:57:31;13.20;99.90
20483;DHT22;10400;53.198;6.592;2023-05-10T08:59:58;13.20;99.90
20483;DHT22;10400;53.198;6.592;2023-05-10T09:02:25;13.20;99.90
20483;DHT22;10400;53.198;6.592;2023-05-10T09:04:51;13.40;99.90
20483;DHT22;10400;53.198;6.592;2023-05-10T09:07:17;13.40;99.90
20483;DHT22;10400;53.198;6.592;2023-05-10T09:09:43;13.40;99.90
20483;DHT22;10400;53.198;6.592;2023-05-10T09:12:09;13.50;99.90
20483;DHT22;10400;53.198;6.592;2023-05-10T09:14:37;13.50;99.90
20483;DHT22;10400;53.198;6.592;2023-05-10T09:17:04;13.50;99.90
20483;DHT22;10400;53.198;6.592;2023-05-10T09:19:30;13.60;99.90
20483;DHT22;10400;53.198;6.592;2023-05-10T09:21:55;13.60;99.90
20483;DHT22;10400;53.198;6.592;2023-05-10T09:24:25;13.60;99.90
20483;DHT22;10400;53.198;6.592;2023-05-10T09:26:52;13.60;99.90
20483;DHT22;10400;53.198;6.592;2023-05-10T09:29:17;13.60;99.90
20483;DHT22;10400;53.198;6.592;2023-05-10T09:31:51;13.50;99.90
20483;DHT22;10400;53.198;6.592;2023-05-10T09:34:43;13.60;99.90
20483;DHT22;10400;53.198;6.592;2023-05-10T09:37:11;13.80;99.90
20483;DHT22;10400;53.198;6.592;2023-05-10T09:39:37;13.90;99.90
20483;DHT22;10400;53.198;6.592;2023-05-10T09:42:07;14.00;99.90
20483;DHT22;10400;53.198;6.592;2023-05-10T09:44:33;14.00;99.90
20483;DHT22;10400;53.198;6.592;2023-05-10T09:47:06;14.10;99.90
20483;DHT22;10400;53.198;6.592;2023-05-10T09:49:31;14.30;99.90
20483;DHT22;10400;53.198;6.592;2023-05-10T09:52:02;14.50;99.90
20483;DHT22;10400;53.198;6.592;2023-05-10T09:54:28;14.60;99.90
20483;DHT22;10400;53.198;6.592;2023-05-10T09:56:54;14.70;99.90
20483;DHT22;10400;53.198;6.592;2023-05-10T09:59:20;14.70;99.90
20483;DHT22;10400;53.198;6.592;2023-05-10T10:01:50;14.60;99.90
20483;DHT22;10400;53.198;6.592;2023-05-10T10:04:17;14.60;99.90
20483;DHT22;10400;53.198;6.592;2023-05-10T10:06:42;14.60;99.90
20483;DHT22;10400;53.198;6.592;2023-05-10T10:09:09;14.60;99.90
20483;DHT22;10400;53.198;6.592;2023-05-10T10:11:38;14.60;99.90
20483;DHT22;10400;53.198;6.592;2023-05-10T10:14:04;14.70;99.90
20483;DHT22;10400;53.198;6.592;2023-05-10T10:16:31;14.90;99.90
20483;DHT22;10400;53.198;6.592;2023-05-10T10:18:57;15.00;99.90
20483;DHT22;10400;53.198;6.592;2023-05-10T10:21:23;15.10;99.90
20483;DHT22;10400;53.198;6.592;2023-05-10T10:23:51;15.30;99.90
20483;DHT22;10400;53.198;6.592;2023-05-10T10:26:19;15.30;99.90
20483;DHT22;10400;53.198;6.592;2023-05-10T10:31:40;15.20;99.90
20483;DHT22;10400;53.198;6.592;2023-05-10T10:34:09;15.20;99.90
20483;DHT22;10400;53.198;6.592;2023-05-10T10:36:49;15.30;99.90
20483;DHT22;10400;53.198;6.592;2023-05-10T10:39:15;15.30;99.90
20483;DHT22;10400;53.198;6.592;2023-05-10T10:41:53;15.30;99.90
20483;DHT22;10400;53.198;6.592;2023-05-10T10:47:07;15.50;99.90
20483;DHT22;10400;53.198;6.592;2023-05-10T10:49:50;15.50;99.90
20483;DHT22;10400;53.198;6.592;2023-05-10T10:57:53;15.30;99.90
20483;DHT22;10400;53.198;6.592;2023-05-10T11:00:29;15.30;99.90
20483;DHT22;10400;53.198;6.592;2023-05-10T11:03:06;15.40;99.90
20483;DHT22;10400;53.198;6.592;2023-05-10T11:05:51;15.60;99.90
20483;DHT22;10400;53.198;6.592;2023-05-10T11:08:32;15.70;99.90
20483;DHT22;10400;53.198;6.592;2023-05-10T11:13:41;15.80;99.90
20483;DHT22;10400;53.198;6.592;2023-05-10T11:16:21;15.90;99.90
20483;DHT22;10400;53.198;6.592;2023-05-10T11:18:59;16.00;99.90
20483;DHT22;10400;53.198;6.592;2023-05-10T11:21:29;16.00;99.90
20483;DHT22;10400;53.198;6.592;2023-05-10T11:24:14;16.00;99.90
20483;DHT22;10400;53.198;6.592;2023-05-10T11:37:06;16.20;99.90
20483;DHT22;10400;53.198;6.592;2023-05-10T11:39:34;16.00;99.90
20483;DHT22;10400;53.198;6.592;2023-05-10T11:42:02;16.00;99.90
20483;DHT22;10400;53.198;6.592;2023-05-10T11:44:32;15.90;99.90
20483;DHT22;10400;53.198;6.592;2023-05-10T11:47:01;15.80;99.90
20483;DHT22;10400;53.198;6.592;2023-05-10T11:49:29;15.70;99.90
20483;DHT22;10400;53.198;6.592;2023-05-10T11:52:12;15.70;99.90
20483;DHT22;10400;53.198;6.592;2023-05-10T11:54:53;15.50;99.90
20483;DHT22;10400;53.198;6.592;2023-05-10T11:57:31;15.50;99.90
20483;DHT22;10400;53.198;6.592;2023-05-10T11:59:59;15.50;99.90
20483;DHT22;10400;53.198;6.592;2023-05-10T12:02:25;15.50;99.90
20483;DHT22;10400;53.198;6.592;2023-05-10T12:04:51;15.40;99.90
20483;DHT22;10400;53.198;6.592;2023-05-10T12:07:28;15.50;99.90
20483;DHT22;10400;53.198;6.592;2023-05-10T12:10:47;15.40;99.90
20483;DHT22;10400;53.198;6.592;2023-05-10T12:13:17;15.40;99.90
20483;DHT22;10400;53.198;6.592;2023-05-10T12:15:52;15.50;99.90
20483;DHT22;10400;53.198;6.592;2023-05-10T12:18:23;15.50;99.90
20483;DHT22;10400;53.198;6.592;2023-05-10T12:21:02;15.60;99.90
20483;DHT22;10400;53.198;6.592;2023-05-10T12:23:33;15.40;99.90
20483;DHT22;10400;53.198;6.592;2023-05-10T12:26:51;15.30;99.90
20483;DHT22;10400;53.198;6.592;2023-05-10T12:29:46;15.30;99.90
20483;DHT22;10400;53.198;6.592;2023-05-10T12:32:15;15.20;99.90
20483;DHT22;10400;53.198;6.592;2023-05-10T12:41:43;15.20;99.90
20483;DHT22;10400;53.198;6.592;2023-05-10T12:44:36;15.20;99.90
20483;DHT22;10400;53.198;6.592;2023-05-10T12:50:43;15.50;99.90
20483;DHT22;10400;53.198;6.592;2023-05-10T12:53:13;15.70;99.90
20483;DHT22;10400;53.198;6.592;2023-05-10T12:55:41;15.90;99.90
20483;DHT22;10400;53.198;6.592;2023-05-10T12:58:07;16.00;99.90
20483;DHT22;10400;53.198;6.592;2023-05-10T13:06:26;16.10;99.90
20483;DHT22;10400;53.198;6.592;2023-05-10T13:09:07;16.20;99.90
20483;DHT22;10400;53.198;6.592;2023-05-10T13:11:41;16.30;99.90
20483;DHT22;10400;53.198;6.592;2023-05-10T13:14:13;16.20;99.90
20483;DHT22;10400;53.198;6.592;2023-05-10T13:16:42;16.30;99.90
20483;DHT22;10400;53.198;6.592;2023-05-10T13:19:08;16.40;99.90
20483;DHT22;10400;53.198;6.592;2023-05-10T13:26:51;16.30;99.90
20483;DHT22;10400;53.198;6.592;2023-05-10T13:29:23;15.70;99.90
20483;DHT22;10400;53.198;6.592;2023-05-10T13:31:49;15.60;99.90
20483;DHT22;10400;53.198;6.592;2023-05-10T13:34:22;15.50;99.90
20483;DHT22;10400;53.198;6.592;2023-05-10T13:36:55;15.50;99.90
20483;DHT22;10400;53.198;6.592;2023-05-10T13:39:24;15.50;99.90
20483;DHT22;10400;53.198;6.592;2023-05-10T13:41:50;15.50;99.90
20483;DHT22;10400;53.198;6.592;2023-05-10T13:44:24;15.50;99.90
20483;DHT22;10400;53.198;6.592;2023-05-10T13:46:56;15.50;99.90
20483;DHT22;10400;53.198;6.592;2023-05-10T13:49:22;15.50;99.90
20483;DHT22;10400;53.198;6.592;2023-05-10T13:51:50;15.50;99.90
20483;DHT22;10400;53.198;6.592;2023-05-10T13:54:16;15.50;99.90
20483;DHT22;10400;53.198;6.592;2023-05-10T13:56:48;15.50;99.90
20483;DHT22;10400;53.198;6.592;2023-05-10T13:59:14;15.60;99.90
20483;DHT22;10400;53.198;6.592;2023-05-10T14:01:43;15.50;99.90
20483;DHT22;10400;53.198;6.592;2023-05-10T14:04:12;15.50;99.90
20483;DHT22;10400;53.198;6.592;2023-05-10T14:06:40;15.50;99.90
20483;DHT22;10400;53.198;6.592;2023-05-10T14:09:08;15.50;99.90
20483;DHT22;10400;53.198;6.592;2023-05-10T14:11:34;15.50;99.90
20483;DHT22;10400;53.198;6.592;2023-05-10T14:14:00;15.60;99.90
20483;DHT22;10400;53.198;6.592;2023-05-10T14:16:31;15.50;99.90
20483;DHT22;10400;53.198;6.592;2023-05-10T14:19:02;15.70;99.90
20483;DHT22;10400;53.198;6.592;2023-05-10T14:21:28;15.70;99.90
20483;DHT22;10400;53.198;6.592;2023-05-10T14:23:55;15.80;99.90
20483;DHT22;10400;53.198;6.592;2023-05-10T14:26:21;15.90;99.90
20483;DHT22;10400;53.198;6.592;2023-05-10T14:28:47;15.90;99.90
20483;DHT22;10400;53.198;6.592;2023-05-10T14:31:12;15.90;99.90
20483;DHT22;10400;53.198;6.592;2023-05-10T14:33:39;16.20;99.90
20483;DHT22;10400;53.198;6.592;2023-05-10T14:36:05;16.30;99.90
20483;DHT22;10400;53.198;6.592;2023-05-10T14:38:31;16.10;97.70
20483;DHT22;10400;53.198;6.592;2023-05-10T15:19:29;17.10;1.00
20483;DHT22;10400;53.198;6.592;2023-05-10T15:21:55;17.10;1.00
20483;DHT22;10400;53.198;6.592;2023-05-10T15:24:21;17.10;1.00
20483;DHT22;10400;53.198;6.592;2023-05-10T15:26:47;17.10;1.00
20483;DHT22;10400;53.198;6.592;2023-05-10T15:29:13;16.90;1.00
20483;DHT22;10400;53.198;6.592;2023-05-10T15:31:45;16.80;1.00
20483;DHT22;10400;53.198;6.592;2023-05-10T15:34:11;16.80;1.00
20483;DHT22;10400;53.198;6.592;2023-05-10T15:36:37;16.80;7.20
20483;DHT22;10400;53.198;6.592;2023-05-10T15:39:02;16.80;9.60
20483;DHT22;10400;53.198;6.592;2023-05-10T15:41:29;16.70;13.00
20483;DHT22;10400;53.198;6.592;2023-05-10T15:43:55;16.70;19.50
20483;DHT22;10400;53.198;6.592;2023-05-10T15:46:21;16.70;14.80
20483;DHT22;10400;53.198;6.592;2023-05-10T15:48:46;16.60;13.10
20483;DHT22;10400;53.198;6.592;2023-05-10T15:51:12;16.70;20.60
20483;DHT22;10400;53.198;6.592;2023-05-10T15:53:38;16.60;25.70
20483;DHT22;10400;53.198;6.592;2023-05-10T15:56:04;16.60;26.70
20483;DHT22;10400;53.198;6.592;2023-05-10T15:58:30;16.60;36.00
20483;DHT22;10400;53.198;6.592;2023-05-10T16:00:56;16.50;40.70
20483;DHT22;10400;53.198;6.592;2023-05-10T16:03:22;16.50;49.40
20483;DHT22;10400;53.198;6.592;2023-05-10T16:05:48;16.30;70.70
20483;DHT22;10400;53.198;6.592;2023-05-10T16:08:13;16.20;86.40
20483;DHT22;10400;53.198;6.592;2023-05-10T16:10:39;16.10;93.80
20483;DHT22;10400;53.198;6.592;2023-05-10T16:13:05;15.90;98.20
20483;DHT22;10400;53.198;6.592;2023-05-10T16:15:31;15.90;99.90
20483;DHT22;10400;53.198;6.592;2023-05-10T16:17:56;15.80;99.90
20483;DHT22;10400;53.198;6.592;2023-05-10T16:20:22;15.70;99.90
20483;DHT22;10400;53.198;6.592;2023-05-10T16:22:48;15.50;99.90
20483;DHT22;10400;53.198;6.592;2023-05-10T16:25:14;15.50;99.90
20483;DHT22;10400;53.198;6.592;2023-05-10T16:27:39;15.50;99.90
20483;DHT22;10400;53.198;6.592;2023-05-10T16:30:06;15.60;99.90
20483;DHT22;10400;53.198;6.592;2023-05-10T16:32:31;15.60;99.90
20483;DHT22;10400;53.198;6.592;2023-05-10T16:34:58;15.50;99.90
20483;DHT22;10400;53.198;6.592;2023-05-10T16:37:24;15.50;99.90
20483;DHT22;10400;53.198;6.592;2023-05-10T16:39:51;15.50;99.90
20483;DHT22;10400;53.198;6.592;2023-05-10T16:42:16;15.60;99.90
20483;DHT22;10400;53.198;6.592;2023-05-10T16:44:42;15.70;99.90
20483;DHT22;10400;53.198;6.592;2023-05-10T16:47:08;15.70;99.90
20483;DHT22;10400;53.198;6.592;2023-05-10T16:49:35;15.50;99.90
20483;DHT22;10400;53.198;6.592;2023-05-10T16:52:01;15.60;99.90
20483;DHT22;10400;53.198;6.592;2023-05-10T16:54:28;15.70;99.90
20483;DHT22;10400;53.198;6.592;2023-05-10T16:56:53;15.70;99.90
20483;DHT22;10400;53.198;6.592;2023-05-10T16:59:19;15.80;99.90
20483;DHT22;10400;53.198;6.592;2023-05-10T17:01:45;15.80;99.90
20483;DHT22;10400;53.198;6.592;2023-05-10T17:04:11;15.80;99.90
20483;DHT22;10400;53.198;6.592;2023-05-10T17:06:38;15.60;99.90
20483;DHT22;10400;53.198;6.592;2023-05-10T17:09:04;15.50;99.90
20483;DHT22;10400;53.198;6.592;2023-05-10T17:11:30;15.60;99.90
20483;DHT22;10400;53.198;6.592;2023-05-10T17:13:57;15.60;99.90
20483;DHT22;10400;53.198;6.592;2023-05-10T17:16:23;15.50;99.90
20483;DHT22;10400;53.198;6.592;2023-05-10T17:18:49;15.40;99.90